Time;durP1;ratioP1;P1;durP2;ratioP2;P2;SDS_P1;SDS_P2;PMS_P1;PMS_P2;Temp;Humidity;BMP_temperature;BMP_pressure;BME280_temperature;BME280_humidity;BME280_pressure;Samples;Min_cycle;Max_cycle;Signal;HPM_P1;HPM_P2
2022/08/25 00:00:16;;;;;;;;;;;;;;;16.33;43.39;97981.88;6216095;28;20450;-62
2022/08/25 00:03:22;;;;;;;;;;;;;;;16.32;43.61;97977.53;6219299;28;19925;-62
2022/08/25 00:06:23;;;;;;;;;;;;;;;16.29;45.61;97975.09;6217027;28;19933;-62
2022/08/25 00:09:27;;;;;;;;;;;;;;;16.24;43.44;97978.06;6218473;28;19932;-63
2022/08/25 00:12:31;;;;;;;;;;;;;;;16.22;45.24;97974.69;6206089;28;19930;-62
2022/08/25 00:15:33;;;;;;;;;;;;;;;16.22;45.53;97972.03;6210434;28;20020;-63
2022/08/25 00:18:35;;;;;;;;;;;;;;;16.24;43.82;97975.41;6216859;28;20075;-62
2022/08/25 00:21:40;;;;;;;;;;;;;;;16.20;46.08;97971.28;6218016;28;19929;-62
2022/08/25 00:24:41;;;;;;;;;;;;;;;16.20;43.99;97970.44;6210805;28;19925;-63
2022/08/25 00:27:43;;;;;;;;;;;;;;;16.18;44.36;97975.84;6207642;28;19932;-63
2022/08/25 00:30:48;;;;;;;;;;;;;;;16.20;44.93;97981.06;6213443;28;20330;-62
2022/08/25 00:33:50;;;;;;;;;;;;;;;16.21;43.08;97969.47;6211209;28;19929;-63
2022/08/25 00:36:51;;;;;;;;;;;;;;;16.17;42.94;97971.50;6214966;28;19932;-62
2022/08/25 00:39:56;;;;;;;;;;;;;;;16.13;43.30;97970.84;6204457;28;19922;-62
2022/08/25 00:42:57;;;;;;;;;;;;;;;16.12;43.34;97963.84;6216259;28;20008;-62
2022/08/25 00:46:01;;;;;;;;;;;;;;;16.13;43.12;97975.31;6210399;28;20016;-62
2022/08/25 00:49:11;;;;;;;;;;;;;;;16.10;43.07;97971.06;6214139;28;19926;-62
2022/08/25 00:52:15;;;;;;;;;;;;;;;16.09;44.44;97972.03;6216116;28;20330;-63
2022/08/25 00:55:21;;;;;;;;;;;;;;;16.08;44.34;97972.16;6214432;28;20294;-63
2022/08/25 00:58:27;;;;;;;;;;;;;;;16.07;43.47;97971.28;6217134;28;20019;-62
2022/08/25 01:01:29;;;;;;;;;;;;;;;16.05;43.33;97967.03;6215246;28;19933;-62
2022/08/25 01:04:36;;;;;;;;;;;;;;;16.01;48.75;97966.38;6207771;28;19925;-62
2022/08/25 01:07:38;;;;;;;;;;;;;;;16.03;43.84;97964.50;6217946;28;19925;-63
2022/08/25 01:10:41;;;;;;;;;;;;;;;16.02;43.79;97970.75;6217860;28;19925;-62
2022/08/25 01:14:05;;;;;;;;;;;;;;;16.01;43.56;97965.53;6217743;28;20000;-62
2022/08/25 01:17:08;;;;;;;;;;;;;;;15.99;44.38;97968.28;6231096;28;19925;-62
2022/08/25 01:20:10;;;;;;;;;;;;;;;16.01;45.30;97969.03;6208803;28;19933;-62
2022/08/25 01:23:13;;;;;;;;;;;;;;;16.05;44.92;97967.03;6203907;28;19925;-62
2022/08/25 01:26:20;;;;;;;;;;;;;;;16.09;44.58;97971.19;6214434;28;19925;-62
2022/08/25 01:29:23;;;;;;;;;;;;;;;16.12;46.62;97977.13;6212694;28;20408;-62
2022/08/25 01:32:24;;;;;;;;;;;;;;;16.19;47.22;97984.66;6206953;28;19926;-62
2022/08/25 01:35:27;;;;;;;;;;;;;;;16.24;44.32;97979.88;6205836;28;19926;-62
2022/08/25 01:38:28;;;;;;;;;;;;;;;16.28;44.10;97978.72;6207622;28;19930;-61
2022/08/25 01:41:40;;;;;;;;;;;;;;;16.31;44.28;97973.19;6212967;28;20012;-63
2022/08/25 01:44:44;;;;;;;;;;;;;;;16.37;46.07;97983.38;6214236;28;20024;-62
2022/08/25 01:47:47;;;;;;;;;;;;;;;16.45;46.43;97980.19;6215847;28;20379;-61
2022/08/25 01:50:51;;;;;;;;;;;;;;;16.51;45.91;97985.88;6221919;28;19930;-61
2022/08/25 01:53:52;;;;;;;;;;;;;;;16.56;45.10;97982.88;6213843;28;20056;-61
2022/08/25 01:56:54;;;;;;;;;;;;;;;16.63;45.08;97983.31;6216286;28;20075;-62
2022/08/25 01:59:55;;;;;;;;;;;;;;;16.68;44.47;97983.84;6208013;28;20024;-64
2022/08/25 02:02:59;;;;;;;;;;;;;;;16.71;46.19;97986.28;6213167;28;20032;-63
2022/08/25 02:06:00;;;;;;;;;;;;;;;16.76;44.67;97986.81;6220613;28;19948;-62
2022/08/25 02:09:04;;;;;;;;;;;;;;;16.80;45.01;97988.28;6221165;28;19937;-62
2022/08/25 02:12:05;;;;;;;;;;;;;;;16.88;44.96;97993.06;6217302;28;19932;-63
2022/08/25 02:15:07;;;;;;;;;;;;;;;16.93;44.65;97983.78;6217004;28;19984;-63
2022/08/25 02:18:10;;;;;;;;;;;;;;;16.99;44.35;97983.34;6212070;28;19929;-62
2022/08/25 02:21:14;;;;;;;;;;;;;;;17.10;45.93;97987.88;6216289;28;19925;-62
2022/08/25 02:24:17;;;;;;;;;;;;;;;17.21;43.50;97992.38;6220944;28;19925;-62
2022/08/25 02:27:23;;;;;;;;;;;;;;;17.31;44.20;97990.75;6216741;28;20067;-62
2022/08/25 02:30:24;;;;;;;;;;;;;;;17.41;43.96;97981.13;6215884;28;19940;-61
2022/08/25 02:33:25;;;;;;;;;;;;;;;17.52;43.12;97982.97;6221607;28;20422;-63
2022/08/25 02:36:30;;;;;;;;;;;;;;;17.63;44.95;97977.66;6223664;28;19925;-63
2022/08/25 02:39:34;;;;;;;;;;;;;;;17.73;44.50;97970.69;6223307;28;20347;-61
2022/08/25 02:42:36;;;;;;;;;;;;;;;17.84;45.46;97982.38;6223452;28;19926;-63
2022/08/25 02:45:40;;;;;;;;;;;;;;;17.94;43.77;97984.19;6223110;28;19925;-63
2022/08/25 02:48:41;;;;;;;;;;;;;;;18.05;42.39;97975.38;6205205;28;19929;-63
2022/08/25 02:51:44;;;;;;;;;;;;;;;18.16;42.41;97977.22;6212564;28;20426;-62
2022/08/25 02:54:46;;;;;;;;;;;;;;;18.26;43.43;97980.84;6205118;28;19928;-62
2022/08/25 02:57:47;;;;;;;;;;;;;;;18.35;43.27;97976.63;6215963;28;19964;-62
2022/08/25 03:00:51;;;;;;;;;;;;;;;18.46;42.96;97984.63;6216362;28;20336;-62
2022/08/25 03:03:56;;;;;;;;;;;;;;;18.58;44.22;97982.78;6221326;28;20008;-62
2022/08/25 03:06:59;;;;;;;;;;;;;;;18.70;42.00;97976.47;6227280;28;20406;-62
2022/08/25 03:10:04;;;;;;;;;;;;;;;18.83;41.81;97977.22;6241069;28;19929;-62
2022/08/25 03:13:05;;;;;;;;;;;;;;;18.96;41.91;97981.53;6216527;28;19929;-61
2022/08/25 03:16:07;;;;;;;;;;;;;;;19.09;41.46;97987.56;6210791;28;19949;-62
2022/08/25 03:19:10;;;;;;;;;;;;;;;19.21;42.07;97980.38;6221407;28;19926;-62
2022/08/25 03:22:11;;;;;;;;;;;;;;;19.35;41.59;97977.41;6220346;28;20035;-62
2022/08/25 03:28:33;;;;;;;;;;;;;;;19.65;42.06;97984.72;6221773;28;20072;-65
2022/08/25 03:31:37;;;;;;;;;;;;;;;19.80;40.93;97981.72;6211686;28;19947;-65
2022/08/25 03:34:38;;;;;;;;;;;;;;;19.95;40.56;97991.09;6205951;28;19930;-66
2022/08/25 03:37:39;;;;;;;;;;;;;;;20.08;40.72;97986.41;6212650;28;19976;-64
2022/08/25 03:40:43;;;;;;;;;;;;;;;20.23;40.58;97978.88;6216790;28;19925;-65
2022/08/25 03:43:44;;;;;;;;;;;;;;;20.36;40.56;97984.03;6221786;28;20064;-65
2022/08/25 03:46:47;;;;;;;;;;;;;;;20.52;40.89;97980.84;6221876;28;19985;-65
2022/08/25 03:49:51;;;;;;;;;;;;;;;20.69;40.00;97979.38;6221693;28;19930;-65
2022/08/25 03:52:56;;;;;;;;;;;;;;;20.85;39.91;97987.75;6222233;28;19925;-65
2022/08/25 03:55:57;;;;;;;;;;;;;;;21.03;39.54;97978.09;6209393;28;19926;-65
2022/08/25 03:58:58;;;;;;;;;;;;;;;21.20;39.88;97978.34;6196990;28;19976;-65
2022/08/25 04:02:04;;;;;;;;;;;;;;;21.37;39.91;97980.38;6197264;28;19926;-66
2022/08/25 04:05:06;;;;;;;;;;;;;;;21.51;39.78;97979.97;6196884;28;20399;-65
2022/08/25 04:08:08;;;;;;;;;;;;;;;21.67;39.87;97986.59;6224573;28;19925;-65
2022/08/25 04:11:13;;;;;;;;;;;;;;;21.86;39.98;97986.56;6245603;28;20302;-65
2022/08/25 04:14:15;;;;;;;;;;;;;;;22.06;40.17;97983.88;6201538;28;20135;-65
2022/08/25 04:17:16;;;;;;;;;;;;;;;22.19;39.98;97981.72;6207278;28;20493;-65
2022/08/25 04:20:20;;;;;;;;;;;;;;;22.38;40.11;97986.19;6210929;28;19929;-64
2022/08/25 04:23:26;;;;;;;;;;;;;;;22.56;40.29;97986.25;6213348;28;20001;-65
2022/08/25 04:26:31;;;;;;;;;;;;;;;22.68;39.99;97982.41;6210371;28;19930;-66
2022/08/25 04:29:34;;;;;;;;;;;;;;;22.83;39.95;97988.94;6208062;28;19929;-66
2022/08/25 04:32:38;;;;;;;;;;;;;;;22.96;39.80;97982.44;6211643;28;19932;-67
2022/08/25 04:35:40;;;;;;;;;;;;;;;23.12;39.98;97984.44;6210838;28;20033;-66
2022/08/25 04:38:41;;;;;;;;;;;;;;;23.26;39.75;97987.44;6214022;28;19925;-66
2022/08/25 04:41:43;;;;;;;;;;;;;;;23.45;39.62;97981.09;6196178;28;19976;-66
2022/08/25 04:44:44;;;;;;;;;;;;;;;23.60;39.40;97989.44;6196540;28;19954;-66
2022/08/25 04:47:45;;;;;;;;;;;;;;;23.72;39.37;97988.25;6197424;28;19936;-67
2022/08/25 04:50:48;;;;;;;;;;;;;;;23.88;39.22;97982.16;6196817;28;20352;-67
2022/08/25 04:53:53;;;;;;;;;;;;;;;24.04;38.99;97976.06;6195663;28;19926;-66
2022/08/25 04:56:54;;;;;;;;;;;;;;;24.15;38.85;97983.88;6196934;28;19926;-66
2022/08/25 04:59:55;;;;;;;;;;;;;;;24.27;38.79;97978.22;6196812;28;20012;-66
2022/08/25 05:02:59;;;;;;;;;;;;;;;24.39;38.44;97982.31;6197253;28;19926;-66
2022/08/25 05:06:00;;;;;;;;;;;;;;;24.57;38.40;97977.75;6196545;28;19926;-66
2022/08/25 05:09:04;;;;;;;;;;;;;;;24.79;38.10;97980.84;6217481;28;20287;-66
2022/08/25 05:12:05;;;;;;;;;;;;;;;25.03;37.68;97978.25;6220786;28;19925;-66
2022/08/25 05:15:49;;;;;;;;;;;;;;;25.27;37.40;97979.34;6220894;28;20011;-66
2022/08/25 05:18:28;;;;;;;;;;;;;;;27.14;34.92;97971.97;6223309;28;20019;-66
2022/08/25 05:21:31;;;;;;;;;;;;;;;31.82;29.25;97989.41;6224762;28;19932;-67
2022/08/25 05:24:35;;;;;;;;;;;;;;;36.47;24.30;97990.31;6225123;28;19925;-66
2022/08/25 05:27:39;;;;;;;;;;;;;;;39.95;20.85;98001.63;6225764;28;19926;-66
2022/08/25 05:30:43;;;;;;;;;;;;;;;42.82;19.84;98004.31;6225154;28;19937;-66
2022/08/25 05:33:46;;;;;;;;;;;;;;;45.50;15.66;98003.91;6224870;28;20020;-66
2022/08/25 05:36:47;;;;;;;;;;;;;;;47.41;16.01;98001.97;6224392;28;19926;-67
2022/08/25 05:39:51;;;;;;;;;;;;;;;48.67;13.91;98003.16;6224873;28;19925;-67
2022/08/25 05:42:55;;;;;;;;;;;;;;;50.01;13.20;98010.06;6225082;28;20306;-67
2022/08/25 05:45:59;;;;;;;;;;;;;;;51.10;13.54;98008.84;6224961;28;20060;-67
2022/08/25 05:49:01;;;;;;;;;;;;;;;52.00;12.49;97996.34;6225173;28;19933;-67
2022/08/25 05:52:03;;;;;;;;;;;;;;;53.00;10.48;98001.88;6224860;28;19926;-67
2022/08/25 05:55:04;;;;;;;;;;;;;;;53.87;12.76;98002.59;6224586;28;20365;-67
2022/08/25 05:58:05;;;;;;;;;;;;;;;54.26;8.60;98004.53;6224412;28;19925;-67
2022/08/25 06:04:41;;;;;;;;;;;;;;;55.00;10.05;98004.09;6224059;28;20380;-67
2022/08/25 06:07:45;;;;;;;;;;;;;;;54.37;9.54;97992.78;6224044;28;19925;-67
2022/08/25 06:10:52;;;;;;;;;;;;;;;54.52;9.99;97986.31;6223287;28;19929;-67
2022/08/25 06:13:58;;;;;;;;;;;;;;;55.09;7.10;97984.16;6224261;28;19926;-67
2022/08/25 06:17:01;;;;;;;;;;;;;;;55.72;9.48;97977.53;6224287;28;19925;-67
2022/08/25 06:20:04;;;;;;;;;;;;;;;55.82;8.06;97982.59;6223531;28;19925;-67
2022/08/25 06:23:08;;;;;;;;;;;;;;;54.93;8.43;97982.16;6223250;28;20306;-66
2022/08/25 06:26:12;;;;;;;;;;;;;;;54.71;8.57;97969.53;6223883;28;19925;-67
2022/08/25 06:29:19;;;;;;;;;;;;;;;55.02;8.50;97973.53;6222409;28;19929;-67
2022/08/25 06:32:21;;;;;;;;;;;;;;;55.78;8.07;97978.91;6223248;28;19929;-67
2022/08/25 06:35:26;;;;;;;;;;;;;;;55.88;7.25;97964.16;6223341;28;20314;-67
2022/08/25 06:38:28;;;;;;;;;;;;;;;55.16;7.03;97962.59;6218897;28;19932;-65
2022/08/25 06:41:31;;;;;;;;;;;;;;;55.77;7.03;97966.75;6218023;28;19934;-67
2022/08/25 06:44:37;;;;;;;;;;;;;;;54.97;7.20;97959.72;6218664;28;19921;-65
2022/08/25 06:47:43;;;;;;;;;;;;;;;54.49;7.11;97947.59;6210667;28;19926;-67
2022/08/25 06:50:46;;;;;;;;;;;;;;;54.51;7.76;97942.44;6220338;28;20414;-66
2022/08/25 06:53:49;;;;;;;;;;;;;;;55.35;6.78;97947.72;6222868;28;19925;-67
2022/08/25 06:56:54;;;;;;;;;;;;;;;55.29;6.29;97942.72;6223167;28;19930;-67
2022/08/25 06:59:57;;;;;;;;;;;;;;;54.02;6.90;97931.44;6222944;28;20030;-67
2022/08/25 07:03:03;;;;;;;;;;;;;;;54.49;6.84;97933.50;6210254;28;19925;-67
2022/08/25 07:06:05;;;;;;;;;;;;;;;55.71;6.76;97925.09;6205835;28;19933;-68
2022/08/25 07:09:12;;;;;;;;;;;;;;;56.58;6.71;97919.91;6245214;28;19925;-67
2022/08/25 07:12:14;;;;;;;;;;;;;;;57.66;5.60;97931.63;6246525;28;20016;-67
2022/08/25 07:15:20;;;;;;;;;;;;;;;58.73;5.84;97928.31;6246693;28;20063;-67
2022/08/25 07:18:21;;;;;;;;;;;;;;;58.75;5.40;97931.53;6246172;28;20023;-67
2022/08/25 07:21:23;;;;;;;;;;;;;;;58.23;5.03;97926.59;6197941;28;20413;-67
2022/08/25 07:24:29;;;;;;;;;;;;;;;56.50;5.83;97904.00;6213197;28;20019;-67
2022/08/25 07:27:30;;;;;;;;;;;;;;;55.98;5.96;97901.47;6222209;28;19980;-67
2022/08/25 07:30:34;;;;;;;;;;;;;;;56.68;5.95;97905.94;6222549;28;19921;-67
2022/08/25 07:35:13;;;;;;;;;;;;;;;55.98;5.86;97895.81;6221948;28;19925;-67
2022/08/25 07:37:06;;;;;;;;;;;;;;;54.39;6.14;97892.63;6208857;28;20787;-66
2022/08/25 07:40:18;;;;;;;;;;;;;;;54.40;6.32;97890.63;6196934;28;19925;-67
2022/08/25 07:43:25;;;;;;;;;;;;;;;55.16;6.18;97891.25;6211963;28;19925;-67
2022/08/25 07:46:32;;;;;;;;;;;;;;;56.66;5.91;97890.56;6221705;28;19925;-68
2022/08/25 07:49:39;;;;;;;;;;;;;;;57.29;5.15;97884.22;6221541;28;19978;-67
2022/08/25 07:52:43;;;;;;;;;;;;;;;56.11;5.83;97887.16;6219828;28;19925;-67
2022/08/25 07:55:46;;;;;;;;;;;;;;;55.44;6.10;97870.53;6197382;28;20402;-67
2022/08/25 07:58:50;;;;;;;;;;;;;;;56.45;5.75;97874.84;6197740;28;19926;-66
2022/08/25 08:01:56;;;;;;;;;;;;;;;56.97;5.81;97871.66;6197196;28;20088;-67
2022/08/25 08:04:58;;;;;;;;;;;;;;;57.28;5.84;97879.78;6196997;28;19976;-68
2022/08/25 08:07:59;;;;;;;;;;;;;;;58.72;4.66;97875.63;6212256;28;19973;-66
2022/08/25 08:11:05;;;;;;;;;;;;;;;60.16;4.45;97889.25;6197027;28;19996;-67
2022/08/25 08:14:07;;;;;;;;;;;;;;;60.43;4.01;97883.97;6197121;28;19925;-67
2022/08/25 08:17:11;;;;;;;;;;;;;;;60.10;4.40;97880.28;6196802;28;19921;-66
2022/08/25 08:20:16;;;;;;;;;;;;;;;60.33;4.08;97879.91;6197328;28;19933;-66
2022/08/25 08:23:19;;;;;;;;;;;;;;;60.58;4.81;97876.28;6196751;28;19949;-67
2022/08/25 08:26:21;;;;;;;;;;;;;;;59.83;4.40;97867.66;6195439;28;19925;-68
2022/08/25 08:29:26;;;;;;;;;;;;;;;59.58;4.30;97873.28;6197300;28;19925;-67
2022/08/25 08:32:27;;;;;;;;;;;;;;;60.10;4.71;97870.94;6196160;28;20443;-67
2022/08/25 08:35:33;;;;;;;;;;;;;;;60.57;4.51;97868.97;6196757;28;19977;-68
2022/08/25 08:38:38;;;;;;;;;;;;;;;60.22;3.62;97864.88;6196712;28;20007;-67
2022/08/25 08:45:21;;;;;;;;;;;;;;;60.98;3.85;97857.09;6220023;28;19932;-68
2022/08/25 08:48:45;;;;;;;;;;;;;;;61.41;4.09;97856.97;6220746;28;19976;-67
2022/08/25 08:51:52;;;;;;;;;;;;;;;59.96;4.07;97857.53;6221358;28;19932;-68
2022/08/25 08:55:01;;;;;;;;;;;;;;;58.34;5.11;97841.69;6225664;28;19926;-67
2022/08/25 08:58:16;;;;;;;;;;;;;;;57.41;5.35;97840.72;6225373;28;20395;-66
2022/08/25 09:01:29;;;;;;;;;;;;;;;57.83;4.86;97839.59;6224756;28;19925;-67
2022/08/25 09:04:59;;;;;;;;;;;;;;;58.50;4.72;97832.94;6225909;28;19925;-66
2022/08/25 09:08:05;;;;;;;;;;;;;;;59.28;4.67;97843.13;6224725;28;19972;-67
2022/08/25 09:11:20;;;;;;;;;;;;;;;59.92;3.98;97831.19;6225659;28;19988;-67
2022/08/25 09:14:33;;;;;;;;;;;;;;;58.52;4.92;97824.81;6225267;28;19925;-67
2022/08/25 09:17:47;;;;;;;;;;;;;;;56.97;5.37;97812.28;6224430;28;19932;-67
2022/08/25 09:20:50;;;;;;;;;;;;;;;56.30;5.57;97810.84;6225355;28;19925;-67
2022/08/25 09:24:02;;;;;;;;;;;;;;;57.01;5.41;97807.47;6225710;28;20036;-67
2022/08/25 09:27:15;;;;;;;;;;;;;;;57.61;5.28;97798.91;6224777;28;19925;-68
2022/08/25 09:30:20;;;;;;;;;;;;;;;58.13;4.73;97796.19;6224876;28;20387;-68
2022/08/25 09:33:24;;;;;;;;;;;;;;;58.06;4.68;97790.44;6225109;28;19925;-67
2022/08/25 09:36:29;;;;;;;;;;;;;;;57.83;4.87;97787.81;6224178;28;19926;-68
2022/08/25 09:39:32;;;;;;;;;;;;;;;57.92;4.82;97779.81;6224902;28;19932;-68
2022/08/25 09:42:46;;;;;;;;;;;;;;;58.36;5.01;97781.78;6225253;28;19925;-67
2022/08/25 09:45:57;;;;;;;;;;;;;;;58.19;5.03;97775.59;6224454;28;20039;-68
2022/08/25 09:49:12;;;;;;;;;;;;;;;54.88;6.41;97758.91;6224507;28;20339;-67
2022/08/25 09:52:16;;;;;;;;;;;;;;;50.25;8.53;97748.34;6223430;28;19956;-67
2022/08/25 09:55:33;;;;;;;;;;;;;;;45.81;10.78;97738.19;6224963;28;20370;-70
2022/08/25 09:58:34;;;;;;;;;;;;;;;42.48;12.75;97721.91;6224591;28;20302;-69
2022/08/25 10:01:46;;;;;;;;;;;;;;;40.46;14.29;97726.22;6224853;28;19932;-69
2022/08/25 10:04:52;;;;;;;;;;;;;;;38.87;15.96;97729.91;6223482;28;20470;-69
2022/08/25 10:08:00;;;;;;;;;;;;;;;37.96;16.75;97738.69;6224086;28;19933;-67
2022/08/25 10:11:04;;;;;;;;;;;;;;;37.11;17.73;97732.44;6222403;28;19936;-67
2022/08/25 10:14:16;;;;;;;;;;;;;;;36.62;18.09;97724.72;6223834;28;20007;-66
2022/08/25 10:17:28;;;;;;;;;;;;;;;36.98;18.20;97716.28;6224206;28;20322;-66
2022/08/25 10:20:34;;;;;;;;;;;;;;;37.47;18.30;97725.59;6223984;28;19938;-67
2022/08/25 10:23:38;;;;;;;;;;;;;;;39.01;15.99;97719.25;6224016;28;20422;-66
2022/08/25 10:26:41;;;;;;;;;;;;;;;41.66;13.87;97715.81;6213495;28;19938;-66
2022/08/25 10:30:03;;;;;;;;;;;;;;;43.07;12.98;97720.13;6198883;28;19925;-67
2022/08/25 10:33:07;;;;;;;;;;;;;;;44.02;12.22;97713.13;6198960;28;20019;-66
2022/08/25 10:36:21;;;;;;;;;;;;;;;44.26;12.18;97712.28;6198957;28;19933;-67
2022/08/25 10:39:32;;;;;;;;;;;;;;;45.16;11.71;97710.44;6198691;28;19992;-67
2022/08/25 10:42:33;;;;;;;;;;;;;;;46.25;11.11;97703.34;6205590;28;20288;-67
2022/08/25 10:45:42;;;;;;;;;;;;;;;46.67;10.79;97708.88;6223438;28;19984;-67
2022/08/25 10:48:46;;;;;;;;;;;;;;;47.36;10.27;97708.56;6223095;28;20280;-66
2022/08/25 10:51:47;;;;;;;;;;;;;;;48.04;10.05;97700.84;6223059;28;20826;-67
2022/08/25 10:55:12;;;;;;;;;;;;;;;48.71;9.45;97702.47;6222428;28;19933;-67
2022/08/25 10:58:16;;;;;;;;;;;;;;;49.02;9.25;97701.50;6222669;28;19926;-68
2022/08/25 11:01:30;;;;;;;;;;;;;;;48.75;9.34;97703.47;6222199;28;19932;-67
2022/08/25 11:04:31;;;;;;;;;;;;;;;47.17;10.28;97694.88;6223097;28;19930;-66
2022/08/25 11:07:36;;;;;;;;;;;;;;;46.34;10.53;97690.34;6223128;28;19925;-68
2022/08/25 11:10:51;;;;;;;;;;;;;;;45.74;10.63;97687.69;6221561;28;19931;-67
2022/08/25 11:14:04;;;;;;;;;;;;;;;44.85;10.96;97677.59;6222696;28;20015;-68
2022/08/25 11:17:31;;;;;;;;;;;;;;;44.29;11.20;97675.63;6221160;28;20387;-66
2022/08/25 11:20:42;;;;;;;;;;;;;;;44.17;11.22;97664.16;6207531;28;20315;-68
2022/08/25 11:23:55;;;;;;;;;;;;;;;44.22;11.41;97659.34;6221062;28;19926;-68
2022/08/25 11:27:05;;;;;;;;;;;;;;;43.90;11.69;97657.25;6221886;28;20434;-69
2022/08/25 11:30:12;;;;;;;;;;;;;;;43.92;11.40;97660.56;6221840;28;20952;-67
2022/08/25 11:33:15;;;;;;;;;;;;;;;43.69;11.52;97651.97;6222281;28;19925;-66
2022/08/25 11:36:24;;;;;;;;;;;;;;;43.28;11.35;97646.84;6201599;28;20310;-66
2022/08/25 11:39:37;;;;;;;;;;;;;;;43.00;11.89;97650.41;6220905;28;20020;-67
2022/08/25 11:42:57;;;;;;;;;;;;;;;43.04;11.63;97646.78;6219637;28;19983;-66
2022/08/25 11:46:07;;;;;;;;;;;;;;;43.00;12.18;97642.09;6219843;28;20071;-68
2022/08/25 11:49:18;;;;;;;;;;;;;;;43.43;11.87;97642.28;6219916;28;20059;-72
2022/08/25 11:52:48;;;;;;;;;;;;;;;43.14;11.91;97629.25;6221494;28;19929;-69
2022/08/25 11:56:01;;;;;;;;;;;;;;;42.83;12.41;97624.00;6220328;28;20299;-66
2022/08/25 11:59:07;;;;;;;;;;;;;;;42.38;12.55;97625.13;6220555;28;20390;-66
2022/08/25 12:02:30;;;;;;;;;;;;;;;41.91;12.84;97621.81;6217684;28;19926;-65
2022/08/25 12:05:40;;;;;;;;;;;;;;;41.57;13.02;97620.81;6216405;28;20052;-69
2022/08/25 12:09:13;;;;;;;;;;;;;;;40.86;13.48;97619.81;6208424;28;19929;-66
2022/08/25 12:12:28;;;;;;;;;;;;;;;39.09;15.13;97614.19;6211543;28;20307;-67
2022/08/25 12:15:32;;;;;;;;;;;;;;;38.02;15.59;97610.47;6221348;28;20287;-67
2022/08/25 12:18:39;;;;;;;;;;;;;;;37.35;16.48;97606.84;6221320;28;20339;-66
2022/08/25 12:21:40;;;;;;;;;;;;;;;36.68;16.77;97607.75;6220683;28;19925;-66
2022/08/25 12:24:41;;;;;;;;;;;;;;;36.49;17.40;97612.63;6213457;28;20704;-65
2022/08/25 12:27:45;;;;;;;;;;;;;;;36.83;16.63;97612.63;6216071;28;19925;-66
2022/08/25 12:30:51;;;;;;;;;;;;;;;37.13;16.70;97615.03;6216605;28;19933;-67
2022/08/25 12:33:59;;;;;;;;;;;;;;;37.38;16.62;97609.09;6218673;28;19929;-66
2022/08/25 12:37:13;;;;;;;;;;;;;;;37.37;16.71;97610.19;6217130;28;19968;-66
2022/08/25 12:40:23;;;;;;;;;;;;;;;37.16;17.02;97608.22;6218326;28;19930;-66
2022/08/25 12:43:41;;;;;;;;;;;;;;;36.88;17.37;97596.25;6217123;28;19925;-66
2022/08/25 12:46:45;;;;;;;;;;;;;;;36.62;17.25;97597.78;6217043;28;19971;-65
2022/08/25 12:49:49;;;;;;;;;;;;;;;36.31;17.31;97593.66;6215888;28;19929;-66
2022/08/25 12:52:55;;;;;;;;;;;;;;;36.33;17.42;97594.25;6213121;28;20490;-67
2022/08/25 12:55:59;;;;;;;;;;;;;;;36.49;17.59;97592.56;6217245;28;19974;-67
2022/08/25 12:59:02;;;;;;;;;;;;;;;36.61;17.37;97585.97;6214054;28;20077;-66
2022/08/25 13:02:22;;;;;;;;;;;;;;;36.34;17.43;97582.19;6205994;28;19960;-66
2022/08/25 13:05:28;;;;;;;;;;;;;;;36.16;17.82;97578.59;6216284;28;20407;-67
2022/08/25 13:08:32;;;;;;;;;;;;;;;36.14;18.03;97580.75;6216549;28;20024;-66
2022/08/25 13:11:39;;;;;;;;;;;;;;;35.88;17.76;97586.81;6218194;28;20299;-67
2022/08/25 13:14:43;;;;;;;;;;;;;;;35.61;17.87;97581.88;6216762;28;20063;-66
2022/08/25 13:17:44;;;;;;;;;;;;;;;35.28;18.14;97583.38;6214849;28;19929;-66
2022/08/25 13:20:50;;;;;;;;;;;;;;;34.87;18.51;97581.59;6216026;28;19929;-66
2022/08/25 13:23:53;;;;;;;;;;;;;;;34.58;18.73;97577.91;6217302;28;19933;-67
2022/08/25 13:27:00;;;;;;;;;;;;;;;34.06;19.10;97585.84;6217453;28;20020;-66
2022/08/25 13:30:04;;;;;;;;;;;;;;;33.59;19.36;97586.41;6215533;28;19932;-66
2022/08/25 13:33:19;;;;;;;;;;;;;;;33.24;19.64;97578.00;6213638;28;19925;-66
2022/08/25 13:39:41;;;;;;;;;;;;;;;32.30;20.75;97577.97;6219998;28;19932;-67
2022/08/25 13:42:44;;;;;;;;;;;;;;;31.85;21.41;97582.63;6221989;28;19929;-67
2022/08/25 13:45:48;;;;;;;;;;;;;;;31.44;21.09;97581.97;6219551;28;19987;-67
2022/08/25 13:49:01;;;;;;;;;;;;;;;31.13;21.72;97581.84;6211291;28;19941;-66
2022/08/25 13:52:06;;;;;;;;;;;;;;;30.95;22.61;97586.06;6214578;28;19933;-66
2022/08/25 13:55:07;;;;;;;;;;;;;;;30.71;23.96;97579.38;6220820;28;20027;-66
2022/08/25 13:58:13;;;;;;;;;;;;;;;30.60;23.21;97582.72;6222304;28;19926;-66
2022/08/25 14:01:42;;;;;;;;;;;;;;;30.51;23.86;97578.53;6221544;28;19925;-66
2022/08/25 14:04:48;;;;;;;;;;;;;;;30.29;24.32;97576.06;6219814;28;19925;-66
2022/08/25 14:07:56;;;;;;;;;;;;;;;30.09;24.73;97569.72;6219623;28;20020;-66
2022/08/25 14:11:10;;;;;;;;;;;;;;;29.89;25.24;97570.50;6221494;28;19925;-66
2022/08/25 14:14:22;;;;;;;;;;;;;;;29.74;25.23;97567.13;6220842;28;19925;-66
2022/08/25 14:17:24;;;;;;;;;;;;;;;29.62;25.58;97568.75;6220168;28;20371;-67
2022/08/25 14:20:27;;;;;;;;;;;;;;;29.44;26.00;97572.00;6219266;28;19929;-67
2022/08/25 14:23:29;;;;;;;;;;;;;;;29.25;25.96;97573.59;6218726;28;20265;-67
2022/08/25 14:26:31;;;;;;;;;;;;;;;29.07;26.33;97576.81;6219362;28;19925;-66
2022/08/25 14:29:35;;;;;;;;;;;;;;;28.86;26.79;97575.00;6219927;28;20315;-66
2022/08/25 14:32:38;;;;;;;;;;;;;;;28.68;27.04;97578.22;6218306;28;19925;-66
2022/08/25 14:35:41;;;;;;;;;;;;;;;28.50;27.07;97581.41;6220141;28;20005;-66
2022/08/25 14:38:43;;;;;;;;;;;;;;;28.34;27.28;97587.09;6216720;28;19925;-66
2022/08/25 14:41:49;;;;;;;;;;;;;;;28.20;27.44;97586.94;6213166;28;19926;-66
2022/08/25 14:44:53;;;;;;;;;;;;;;;28.15;27.57;97589.41;6219271;28;20080;-66
2022/08/25 14:47:55;;;;;;;;;;;;;;;28.03;27.50;97584.72;6219775;28;20377;-66
2022/08/25 14:51:02;;;;;;;;;;;;;;;27.88;28.02;97587.44;6218352;28;19932;-67
2022/08/25 14:54:08;;;;;;;;;;;;;;;27.77;28.05;97592.31;6219276;28;20397;-65
2022/08/25 14:57:12;;;;;;;;;;;;;;;27.99;29.68;97595.06;6211783;28;19929;-66
2022/08/25 15:00:14;;;;;;;;;;;;;;;27.76;29.91;97596.03;6219227;28;19929;-67
2022/08/25 15:03:17;;;;;;;;;;;;;;;27.74;30.10;97598.09;6216622;28;19965;-66
2022/08/25 15:06:21;;;;;;;;;;;;;;;27.50;30.51;97601.13;6219065;28;19925;-66
2022/08/25 15:09:25;;;;;;;;;;;;;;;27.38;30.92;97608.06;6221239;28;20036;-67
2022/08/25 15:12:26;;;;;;;;;;;;;;;27.18;31.02;97603.22;6222514;28;19940;-65
2022/08/25 15:15:31;;;;;;;;;;;;;;;26.92;30.93;97611.75;6213814;28;20012;-67
2022/08/25 15:18:33;;;;;;;;;;;;;;;26.88;31.10;97613.97;6198153;28;19933;-65
2022/08/25 15:21:35;;;;;;;;;;;;;;;26.76;30.99;97620.84;6218357;28;19926;-67
2022/08/25 15:24:36;;;;;;;;;;;;;;;26.72;31.56;97613.28;6221741;28;19936;-68
2022/08/25 15:27:37;;;;;;;;;;;;;;;26.70;31.60;97618.88;6221409;28;19925;-65
2022/08/25 15:30:38;;;;;;;;;;;;;;;26.60;31.86;97626.38;6219549;28;20373;-66
2022/08/25 15:33:44;;;;;;;;;;;;;;;26.38;31.72;97623.53;6213794;28;19927;-67
2022/08/25 15:36:45;;;;;;;;;;;;;;;26.26;32.16;97619.56;6221809;28;19925;-66
2022/08/25 15:39:51;;;;;;;;;;;;;;;26.17;32.31;97634.97;6221634;28;19929;-66
2022/08/25 15:42:53;;;;;;;;;;;;;;;26.13;32.98;97628.25;6222038;28;20012;-65
2022/08/25 15:45:55;;;;;;;;;;;;;;;26.01;33.65;97631.53;6221858;28;19925;-65
2022/08/25 15:48:56;;;;;;;;;;;;;;;25.75;34.27;97632.66;6220404;28;19926;-66
2022/08/25 15:51:59;;;;;;;;;;;;;;;25.54;34.82;97644.91;6221384;28;20024;-66
2022/08/25 15:55:00;;;;;;;;;;;;;;;25.27;35.29;97638.09;6221312;28;20422;-66
2022/08/25 15:58:02;;;;;;;;;;;;;;;25.15;35.26;97641.34;6221672;28;20012;-66
2022/08/25 16:01:10;;;;;;;;;;;;;;;24.95;35.85;97639.00;6220608;28;20366;-66
2022/08/25 16:04:13;;;;;;;;;;;;;;;24.86;36.39;97640.03;6220992;28;19925;-65
2022/08/25 16:07:15;;;;;;;;;;;;;;;24.82;36.37;97649.44;6206801;28;19926;-66
2022/08/25 16:10:19;;;;;;;;;;;;;;;24.93;36.13;97648.25;6196945;28;19993;-66
2022/08/25 16:13:25;;;;;;;;;;;;;;;24.83;35.75;97653.84;6197245;28;19926;-66
2022/08/25 16:16:29;;;;;;;;;;;;;;;24.67;36.24;97652.00;6197062;28;19925;-66
2022/08/25 16:19:31;;;;;;;;;;;;;;;24.59;36.02;97652.81;6201229;28;19925;-66
2022/08/25 16:22:32;;;;;;;;;;;;;;;24.68;36.50;97655.50;6221616;28;20003;-66